createdAt,value
2019-03-08T00:00:27.513Z,100137.23
2019-03-08T00:02:55.513Z,100153.30
2019-03-08T00:05:23.331Z,100149.01
2019-03-08T00:07:51.147Z,100149.39
2019-03-08T00:10:19.244Z,100152.36
2019-03-08T00:12:47.245Z,100162.23
2019-03-08T00:15:15.362Z,100167.33
2019-03-08T00:17:43.165Z,100179.33
2019-03-08T00:20:11.435Z,100178.94
2019-03-08T00:22:39.350Z,100180.77
2019-03-08T00:25:07.590Z,100183.16
2019-03-08T00:27:35.399Z,100189.59
2019-03-08T00:30:04.201Z,100205.74
2019-03-08T00:32:32.217Z,100200.95
2019-03-08T00:35:00.402Z,100214.82
2019-03-08T00:37:28.222Z,100228.30
2019-03-08T00:39:56.138Z,100232.35
2019-03-08T00:42:24.190Z,100236.02
2019-03-08T00:44:52.455Z,100238.86
2019-03-08T00:47:20.493Z,100253.87
2019-03-08T00:49:48.291Z,100257.41
2019-03-08T00:52:16.427Z,100255.57
2019-03-08T00:54:44.399Z,100268.06
2019-03-08T00:57:12.360Z,100268.83
2019-03-08T00:59:40.406Z,100274.25
2019-03-08T01:02:08.615Z,100275.17
2019-03-08T01:04:36.511Z,100288.83
2019-03-08T01:07:04.396Z,100292.11
2019-03-08T01:09:37.037Z,100302.16
2019-03-08T01:12:04.963Z,100294.96
2019-03-08T01:14:33.005Z,100306.40
2019-03-08T01:17:00.880Z,100305.72
2019-03-08T01:19:28.932Z,100317.36
2019-03-08T01:21:56.737Z,100336.45
2019-03-08T01:24:24.521Z,100360.52
2019-03-08T01:26:52.445Z,100356.62
2019-03-08T01:29:20.270Z,100356.02
2019-03-08T01:31:48.084Z,100350.66
2019-03-08T01:34:16.083Z,100374.58
2019-03-08T01:36:44.140Z,100365.19
2019-03-08T01:39:12.109Z,100354.09
2019-03-08T01:41:39.916Z,100368.97
2019-03-08T01:44:09.421Z,100377.89
2019-03-08T01:46:37.354Z,100383.55
2019-03-08T01:49:05.146Z,100385.17
2019-03-08T01:51:33.356Z,100392.33
2019-03-08T01:54:01.284Z,100400.93
2019-03-08T01:56:29.075Z,100405.59
2019-03-08T01:58:56.873Z,100394.02
2019-03-08T02:01:25.096Z,100414.05
2019-03-08T02:03:52.996Z,100412.31
2019-03-08T02:06:20.788Z,100409.24
2019-03-08T02:08:48.712Z,100423.82
2019-03-08T02:11:16.684Z,100424.02
2019-03-08T02:13:44.475Z,100434.95
2019-03-08T02:16:12.272Z,100436.03
2019-03-08T02:18:40.298Z,100440.99
2019-03-08T02:21:09.305Z,100446.34
2019-03-08T02:23:38.223Z,100448.70
2019-03-08T02:26:06.168Z,100452.72
2019-03-08T02:28:33.968Z,100468.39
2019-03-08T02:31:03.758Z,100451.24
2019-03-08T02:33:31.698Z,100465.32
2019-03-08T02:35:59.488Z,100464.19
2019-03-08T02:38:28.583Z,100480.36
2019-03-08T02:40:56.568Z,100480.51
2019-03-08T02:43:24.355Z,100487.58
2019-03-08T02:45:52.131Z,100483.78
2019-03-08T02:48:20.067Z,100488.31
2019-03-08T02:50:48.051Z,100489.30
2019-03-08T02:53:16.144Z,100494.77
2019-03-08T02:55:44.147Z,100495.13
2019-03-08T02:58:12.169Z,100492.66
2019-03-08T03:00:46.710Z,100505.01
2019-03-08T03:03:16.113Z,100498.75
2019-03-08T03:05:44.008Z,100508.19
2019-03-08T03:08:11.793Z,100518.09
2019-03-08T03:10:39.711Z,100513.67
2019-03-08T03:13:07.634Z,100525.93
2019-03-08T03:15:35.874Z,100530.09
2019-03-08T03:18:03.823Z,100538.56
2019-03-08T03:20:31.620Z,100545.13
2019-03-08T03:22:59.580Z,100548.00
2019-03-08T03:25:27.378Z,100559.24
2019-03-08T03:27:55.319Z,100559.53
2019-03-08T03:30:23.181Z,100565.33
2019-03-08T03:32:50.955Z,100567.02
2019-03-08T03:35:18.938Z,100579.34
2019-03-08T03:37:47.347Z,100592.87
2019-03-08T03:40:15.273Z,100594.08
2019-03-08T03:42:43.590Z,100594.51
2019-03-08T03:45:13.709Z,100607.59
2019-03-08T03:47:41.802Z,100599.05
2019-03-08T03:50:10.469Z,100606.80
2019-03-08T03:52:40.832Z,100617.00
2019-03-08T03:55:10.818Z,100617.88
2019-03-08T03:57:42.720Z,100626.27
2019-03-08T04:00:12.870Z,100629.63
2019-03-08T04:02:42.310Z,100629.82
2019-03-08T04:05:10.588Z,100640.66
2019-03-08T04:07:43.362Z,100647.80
2019-03-08T04:10:15.362Z,100646.05
2019-03-08T04:12:44.415Z,100651.17
2019-03-08T04:15:13.368Z,100654.17
2019-03-08T04:17:43.343Z,100662.38
2019-03-08T04:20:13.482Z,100654.75
2019-03-08T04:22:41.448Z,100671.55
2019-03-08T04:25:10.854Z,100668.78
2019-03-08T04:27:38.730Z,100680.57
2019-03-08T04:30:08.612Z,100678.08
2019-03-08T04:32:36.738Z,100684.59
2019-03-08T04:35:05.095Z,100698.14
2019-03-08T04:37:32.918Z,100699.54
2019-03-08T04:40:00.832Z,100699.61
2019-03-08T04:42:28.636Z,100710.28
2019-03-08T04:44:56.531Z,100721.14
2019-03-08T04:47:24.561Z,100710.48
2019-03-08T04:49:52.355Z,100729.83
2019-03-08T04:52:20.304Z,100738.77
2019-03-08T04:54:48.108Z,100746.66
2019-03-08T04:57:16.246Z,100746.59
2019-03-08T04:59:44.043Z,100743.33
2019-03-08T05:02:11.979Z,100755.05
2019-03-08T05:04:40.087Z,100759.34
2019-03-08T05:07:07.868Z,100765.66
2019-03-08T05:09:35.782Z,100778.38
2019-03-08T05:12:03.575Z,100771.03
2019-03-08T05:14:31.368Z,100786.19
2019-03-08T05:16:59.315Z,100793.91
2019-03-08T05:19:27.489Z,100806.16
2019-03-08T05:21:55.398Z,100806.13
2019-03-08T05:24:23.256Z,100805.70
2019-03-08T05:26:51.267Z,100815.78
2019-03-08T05:29:19.073Z,100830.09
2019-03-08T05:31:48.895Z,100838.45
2019-03-08T05:34:16.862Z,100844.50
2019-03-08T05:36:44.665Z,100853.47
2019-03-08T05:39:12.714Z,100860.45
2019-03-08T05:41:40.873Z,100874.51
2019-03-08T05:44:08.860Z,100872.28
2019-03-08T05:46:36.823Z,100880.48
2019-03-08T05:49:04.712Z,100892.00
2019-03-08T05:51:34.240Z,100898.17
2019-03-08T05:54:02.506Z,100913.51
2019-03-08T05:56:30.604Z,100924.27
2019-03-08T05:58:58.654Z,100928.45
2019-03-08T06:01:26.434Z,100937.25
2019-03-08T06:03:55.411Z,100939.22
2019-03-08T06:06:23.294Z,100949.45
2019-03-08T06:08:51.271Z,100962.95
2019-03-08T06:11:19.092Z,100970.17
2019-03-08T06:13:47.001Z,100978.45
2019-03-08T06:16:14.988Z,100980.77
2019-03-08T06:18:43.154Z,100984.80
2019-03-08T06:21:11.151Z,100984.95
2019-03-08T06:23:39.823Z,100997.64
2019-03-08T06:26:07.660Z,101005.48
2019-03-08T06:28:35.602Z,101009.96
2019-03-08T06:31:03.413Z,101019.13
2019-03-08T06:33:31.315Z,101021.23
2019-03-08T06:35:59.333Z,101030.78
2019-03-08T06:38:27.129Z,101023.53
2019-03-08T06:40:55.672Z,101038.30
2019-03-08T06:43:23.512Z,101045.49
2019-03-08T06:45:51.344Z,101041.03
2019-03-08T06:48:19.346Z,101044.56
2019-03-08T06:50:47.343Z,101055.61
2019-03-08T06:53:15.683Z,101054.26
2019-03-08T06:55:45.004Z,101060.97
2019-03-08T06:58:15.663Z,101069.05
2019-03-08T07:00:51.889Z,101077.75
2019-03-08T07:03:19.897Z,101082.06
2019-03-08T07:05:47.756Z,101089.04
2019-03-08T07:08:15.570Z,101096.67
2019-03-08T07:10:43.839Z,101097.58
2019-03-08T07:13:11.881Z,101095.97
2019-03-08T07:15:39.730Z,101104.56
2019-03-08T07:18:12.619Z,101112.88
2019-03-08T07:20:51.485Z,101119.51
2019-03-08T07:23:41.872Z,101129.98
2019-03-08T07:26:32.373Z,101134.92
2019-03-08T07:29:28.676Z,101137.50
2019-03-08T07:32:32.428Z,101145.09
2019-03-08T07:35:25.432Z,101145.52
2019-03-08T07:38:15.887Z,101143.43
2019-03-08T07:41:05.981Z,101158.05
2019-03-08T07:43:54.812Z,101167.31
2019-03-08T07:46:29.020Z,101172.37
2019-03-08T07:49:15.121Z,101186.45
2019-03-08T07:52:01.488Z,101190.30
2019-03-08T07:54:36.956Z,101196.44
2019-03-08T07:57:33.926Z,101201.70
2019-03-08T08:00:30.620Z,101204.70
2019-03-08T08:03:16.587Z,101210.59
2019-03-08T08:06:09.604Z,101207.01
2019-03-08T08:09:00.120Z,101219.34
2019-03-08T08:12:00.013Z,101232.38
2019-03-08T08:14:48.386Z,101237.27
2019-03-08T08:17:42.009Z,101236.46
2019-03-08T08:20:30.040Z,101247.33
2019-03-08T08:23:17.711Z,101251.77
2019-03-08T08:26:14.137Z,101253.91
2019-03-08T08:29:12.154Z,101267.36
2019-03-08T08:32:02.253Z,101272.52
2019-03-08T08:35:05.010Z,101280.36
2019-03-08T08:37:55.584Z,101288.34
2019-03-08T08:40:58.124Z,101291.81
2019-03-08T08:43:38.836Z,101297.30
2019-03-08T08:46:26.428Z,101304.98
2019-03-08T08:49:12.854Z,101301.55
2019-03-08T08:52:00.459Z,101311.77
2019-03-08T08:54:50.515Z,101317.09
2019-03-08T08:57:27.904Z,101309.31
2019-03-08T09:00:14.670Z,101318.11
2019-03-08T09:03:04.991Z,101320.66
2019-03-08T09:05:59.461Z,101310.94
2019-03-08T09:08:37.680Z,101318.61
2019-03-08T09:11:30.919Z,101323.40
2019-03-08T09:14:09.235Z,101330.32
2019-03-08T09:16:55.159Z,101337.73
2019-03-08T09:19:48.879Z,101350.80
2019-03-08T09:22:31.597Z,101347.64
2019-03-08T09:25:19.005Z,101357.80
2019-03-08T09:28:00.077Z,101364.70
2019-03-08T09:30:53.276Z,101362.75
2019-03-08T09:33:25.900Z,101373.69
2019-03-08T09:36:13.305Z,101380.32
2019-03-08T09:38:59.730Z,101380.52
2019-03-08T09:41:34.256Z,101383.04
2019-03-08T09:44:25.067Z,101393.09
2019-03-08T09:47:02.176Z,101393.05
2019-03-08T09:49:47.505Z,101401.97
2019-03-08T09:52:35.183Z,101402.38
2019-03-08T09:55:10.375Z,101419.65
2019-03-08T09:58:13.121Z,101415.11
2019-03-08T10:00:59.442Z,101420.87
2019-03-08T10:03:52.656Z,101431.88
2019-03-08T10:06:43.261Z,101431.11
2019-03-08T10:09:40.611Z,101441.55
2019-03-08T10:12:34.438Z,101435.53
2019-03-08T10:15:20.950Z,101437.53
2019-03-08T10:17:58.849Z,101441.54
2019-03-08T10:20:58.390Z,101444.67
2019-03-08T10:23:40.033Z,101441.35
2019-03-08T10:26:36.288Z,101445.28
2019-03-08T10:29:10.768Z,101449.42
2019-03-08T10:32:04.322Z,101457.30
2019-03-08T10:34:46.961Z,101460.30
2019-03-08T10:37:28.237Z,101457.58
2019-03-08T10:40:06.101Z,101466.45
2019-03-08T10:42:52.299Z,101465.84
2019-03-08T10:45:42.646Z,101463.22
2019-03-08T10:48:30.205Z,101467.59
2019-03-08T10:51:06.879Z,101469.31
2019-03-08T10:53:44.498Z,101473.56
2019-03-08T10:56:43.649Z,101463.77
2019-03-08T10:59:24.342Z,101467.77
2019-03-08T11:02:12.036Z,101469.53
2019-03-08T11:04:57.735Z,101470.22
2019-03-08T11:07:38.274Z,101465.89
2019-03-08T11:10:31.659Z,101475.44
2019-03-08T11:13:18.159Z,101477.03
2019-03-08T11:16:04.291Z,101480.77
2019-03-08T11:18:45.324Z,101487.89
2019-03-08T11:21:38.126Z,101485.20
2019-03-08T11:24:35.473Z,101481.27
2019-03-08T11:27:38.138Z,101482.58
2019-03-08T11:30:21.786Z,101483.95
2019-03-08T11:33:07.447Z,101482.45
2019-03-08T11:35:56.749Z,101482.93
2019-03-08T11:38:50.251Z,101485.43
2019-03-08T11:41:25.838Z,101484.72
2019-03-08T11:44:12.000Z,101484.50
2019-03-08T11:46:57.091Z,101499.52
2019-03-08T11:49:43.149Z,101489.98
2019-03-08T11:52:29.371Z,101492.80
2019-03-08T11:55:17.869Z,101503.60
2019-03-08T11:58:11.389Z,101499.55
2019-03-08T12:00:53.295Z,101502.34
2019-03-08T12:03:34.808Z,101515.84
2019-03-08T12:06:26.864Z,101512.81
2019-03-08T12:09:07.690Z,101503.86
2019-03-08T12:12:02.444Z,101512.88
2019-03-08T12:14:48.547Z,101514.36
2019-03-08T12:17:35.362Z,101509.02
2019-03-08T12:20:30.549Z,101515.03
2019-03-08T12:23:17.084Z,101507.02
2019-03-08T12:26:10.512Z,101507.50
2019-03-08T12:28:49.790Z,101499.56
2019-03-08T12:31:36.138Z,101496.55
2019-03-08T12:34:27.071Z,101507.08
2019-03-08T12:37:15.213Z,101502.47
2019-03-08T12:39:52.155Z,101508.59
2019-03-08T12:42:38.435Z,101500.36
2019-03-08T12:45:35.885Z,101507.13
2019-03-08T12:48:25.872Z,101496.55
2019-03-08T12:51:02.331Z,101495.69
2019-03-08T12:53:55.478Z,101486.87
2019-03-08T12:56:48.810Z,101483.09
2019-03-08T12:59:30.148Z,101488.84
2019-03-08T13:02:20.153Z,101483.65
2019-03-08T13:05:20.085Z,101476.05
2019-03-08T13:08:03.957Z,101475.89
2019-03-08T13:10:33.021Z,101472.87
2019-03-08T13:13:00.806Z,101471.29
2019-03-08T13:15:28.768Z,101468.43
2019-03-08T13:17:56.747Z,101473.92
2019-03-08T13:20:24.709Z,101472.62
2019-03-08T13:22:52.506Z,101467.28
2019-03-08T13:25:20.759Z,101458.97
2019-03-08T13:27:48.584Z,101459.94
2019-03-08T13:30:19.318Z,101454.37
2019-03-08T13:32:47.930Z,101469.62
2019-03-08T13:35:15.896Z,101460.05
2019-03-08T13:37:43.699Z,101461.36
2019-03-08T13:40:13.016Z,101459.11
2019-03-08T13:42:40.824Z,101459.34
2019-03-08T13:45:12.047Z,101463.06
2019-03-08T13:47:40.200Z,101460.28
2019-03-08T13:50:09.817Z,101460.19
2019-03-08T13:52:37.650Z,101457.78
2019-03-08T13:55:09.685Z,101457.94
2019-03-08T13:57:37.286Z,101457.74
2019-03-08T14:00:07.918Z,101454.55
2019-03-08T14:02:35.928Z,101458.00
2019-03-08T14:05:04.408Z,101452.09
2019-03-08T14:07:32.582Z,101452.05
2019-03-08T14:10:00.508Z,101459.93
2019-03-08T14:12:29.913Z,101466.11
2019-03-08T14:14:57.834Z,101465.08
2019-03-08T14:17:26.062Z,101464.70
2019-03-08T14:19:53.864Z,101465.59
2019-03-08T14:22:21.858Z,101466.90
2019-03-08T14:24:49.697Z,101452.92
2019-03-08T14:27:17.538Z,101463.51
2019-03-08T14:29:45.572Z,101458.65
2019-03-08T14:32:21.142Z,101448.98
2019-03-08T14:34:49.658Z,101454.34
2019-03-08T14:37:19.850Z,101453.14
2019-03-08T14:39:48.663Z,101457.22
2019-03-08T14:42:40.408Z,101463.20
2019-03-08T14:45:30.069Z,101460.72
2019-03-08T14:47:59.639Z,101463.42
2019-03-08T14:50:27.608Z,101456.63
2019-03-08T14:52:56.748Z,101452.01
2019-03-08T14:55:24.977Z,101463.80
2019-03-08T14:57:55.287Z,101459.58
2019-03-08T15:00:25.189Z,101453.69
2019-03-08T15:02:53.242Z,101457.09
2019-03-08T15:05:21.059Z,101459.31
2019-03-08T15:07:49.195Z,101463.47
2019-03-08T15:10:18.721Z,101461.23
2019-03-08T15:12:48.991Z,101456.72
2019-03-08T15:15:16.880Z,101450.72
2019-03-08T15:17:44.681Z,101447.12
2019-03-08T15:20:15.601Z,101450.84
2019-03-08T15:22:43.541Z,101451.05
2019-03-08T15:25:12.671Z,101452.02
2019-03-08T15:27:41.422Z,101453.80
2019-03-08T15:30:12.559Z,101447.12
2019-03-08T15:32:40.360Z,101446.72
2019-03-08T15:35:09.588Z,101443.73
2019-03-08T15:37:44.248Z,101451.34
2019-03-08T15:40:11.286Z,101450.58
2019-03-08T15:42:39.223Z,101443.38
2019-03-08T15:45:08.431Z,101448.92
2019-03-08T15:47:37.389Z,101442.84
2019-03-08T15:50:09.641Z,101438.00
2019-03-08T15:52:37.958Z,101435.94
2019-03-08T15:55:06.126Z,101432.69
2019-03-08T15:57:33.931Z,101422.16
2019-03-08T16:00:01.874Z,101426.01
2019-03-08T16:02:30.072Z,101430.70
2019-03-08T16:04:58.009Z,101433.01
2019-03-08T16:07:27.231Z,101421.80
2019-03-08T16:09:55.344Z,101418.44
2019-03-08T16:12:23.140Z,101437.35
2019-03-08T16:14:51.229Z,101432.99
2019-03-08T16:17:20.979Z,101434.23
2019-03-08T16:19:48.838Z,101433.51
2019-03-08T16:22:16.798Z,101447.20
2019-03-08T16:24:44.602Z,101450.28
2019-03-08T16:27:12.638Z,101444.50
2019-03-08T16:29:40.740Z,101439.25
2019-03-08T16:32:24.780Z,101444.25
2019-03-08T16:34:52.568Z,101441.80
2019-03-08T16:37:40.142Z,101451.25
2019-03-08T16:40:26.236Z,101448.83
2019-03-08T16:43:25.895Z,101460.50
2019-03-08T16:46:16.486Z,101451.63
2019-03-08T16:48:59.220Z,101456.16
2019-03-08T16:51:44.296Z,101444.02
2019-03-08T16:54:30.013Z,101460.27
2019-03-08T16:57:08.997Z,101451.87
2019-03-08T16:59:56.403Z,101443.63
2019-03-08T17:02:46.673Z,101439.33
2019-03-08T17:05:27.699Z,101439.69
2019-03-08T17:08:16.618Z,101440.64
2019-03-08T17:10:56.998Z,101435.77
2019-03-08T17:13:31.102Z,101440.42
2019-03-08T17:16:33.560Z,101439.83
2019-03-08T17:19:20.737Z,101430.78
2019-03-08T17:22:07.959Z,101421.31
2019-03-08T17:25:01.240Z,101421.19
2019-03-08T17:27:34.953Z,101421.51
2019-03-08T17:30:26.637Z,101422.63
2019-03-08T17:33:29.649Z,101428.44
2019-03-08T17:36:32.101Z,101423.72
2019-03-08T17:39:09.164Z,101420.45
2019-03-08T17:41:53.435Z,101426.45
2019-03-08T17:44:49.919Z,101422.12
2019-03-08T17:47:22.412Z,101415.92
2019-03-08T17:50:09.846Z,101416.52
2019-03-08T17:52:51.707Z,101419.02
2019-03-08T17:55:39.096Z,101412.36
2019-03-08T17:58:35.654Z,101405.61
2019-03-08T18:01:28.680Z,101401.14
2019-03-08T18:04:19.282Z,101401.48
2019-03-08T18:07:05.060Z,101408.83
2019-03-08T18:09:51.472Z,101412.34
2019-03-08T18:12:51.101Z,101394.87
2019-03-08T18:15:44.445Z,101403.23
2019-03-08T18:18:30.478Z,101401.40
2019-03-08T18:21:07.795Z,101398.81
2019-03-08T18:24:01.479Z,101403.77
2019-03-08T18:26:49.050Z,101390.48
2019-03-08T18:29:35.209Z,101387.72
2019-03-08T18:32:25.275Z,101387.78
2019-03-08T18:35:18.607Z,101383.17
2019-03-08T18:37:54.230Z,101389.42
2019-03-08T18:40:42.051Z,101382.64
2019-03-08T18:43:32.107Z,101380.38
2019-03-08T18:46:13.313Z,101385.30
2019-03-08T18:49:03.722Z,101382.80
2019-03-08T18:51:49.876Z,101374.75
2019-03-08T18:54:27.917Z,101376.45
2019-03-08T18:57:33.605Z,101364.23
2019-03-08T19:00:20.999Z,101364.77
2019-03-08T19:03:08.234Z,101352.46
2019-03-08T19:05:42.385Z,101352.86
2019-03-08T19:08:36.108Z,101346.61
2019-03-08T19:11:10.760Z,101351.08
2019-03-08T19:13:46.290Z,101341.11
2019-03-08T19:16:35.052Z,101343.51
2019-03-08T19:19:22.664Z,101344.97
2019-03-08T19:21:59.138Z,101335.39
2019-03-08T19:24:46.736Z,101334.71
2019-03-08T19:27:43.031Z,101331.97
2019-03-08T19:30:48.997Z,101322.08
2019-03-08T19:33:26.928Z,101320.70
2019-03-08T19:36:01.422Z,101323.72
2019-03-08T19:38:47.483Z,101324.61
2019-03-08T19:41:27.866Z,101318.52
2019-03-08T19:44:17.953Z,101316.50
2019-03-08T19:46:54.812Z,101319.12
2019-03-08T19:49:54.120Z,101312.65
2019-03-08T19:52:33.136Z,101321.24
2019-03-08T19:55:14.319Z,101305.59
2019-03-08T19:58:00.214Z,101308.60
2019-03-08T20:00:57.933Z,101307.98
2019-03-08T20:03:32.079Z,101319.94
2019-03-08T20:06:28.351Z,101312.11
2019-03-08T20:09:14.337Z,101309.04
2019-03-08T20:12:07.936Z,101321.34
2019-03-08T20:14:47.035Z,101301.73
2019-03-08T20:17:37.658Z,101321.52
2019-03-08T20:20:32.510Z,101329.91
2019-03-08T20:23:13.642Z,101337.73
2019-03-08T20:26:01.016Z,101346.09
2019-03-08T20:28:54.773Z,101332.11
2019-03-08T20:31:46.946Z,101342.31
2019-03-08T20:34:23.590Z,101332.63
2019-03-08T20:37:14.654Z,101339.42
2019-03-08T20:40:09.496Z,101335.61
2019-03-08T20:42:48.701Z,101331.05
2019-03-08T20:45:39.834Z,101333.20
2019-03-08T20:48:07.681Z,101327.08
2019-03-08T20:50:35.729Z,101310.25
2019-03-08T20:53:04.080Z,101295.47
2019-03-08T20:55:32.201Z,101279.67
2019-03-08T20:58:00.457Z,101273.11
2019-03-08T21:00:28.287Z,101263.10
2019-03-08T21:02:59.758Z,101263.23
2019-03-08T21:05:28.678Z,101250.84
2019-03-08T21:07:56.684Z,101249.73
2019-03-08T21:10:24.555Z,101246.72
2019-03-08T21:12:52.413Z,101239.95
2019-03-08T21:15:25.266Z,101221.08
2019-03-08T21:17:50.303Z,101215.50
2019-03-08T21:20:18.120Z,101213.31
2019-03-08T21:22:46.059Z,101203.13
2019-03-08T21:25:14.428Z,101196.03
2019-03-08T21:27:42.247Z,101189.81
2019-03-08T21:30:14.097Z,101191.14
2019-03-08T21:32:42.217Z,101195.74
2019-03-08T21:35:10.250Z,101189.14
2019-03-08T21:37:38.344Z,101185.61
2019-03-08T21:40:06.822Z,101180.28
2019-03-08T21:42:36.821Z,101169.52
2019-03-08T21:45:06.292Z,101166.25
2019-03-08T21:47:34.126Z,101153.22
2019-03-08T21:50:02.146Z,101147.53
2019-03-08T21:52:30.230Z,101144.50
2019-03-08T21:54:58.033Z,101133.98
2019-03-08T21:57:26.052Z,101141.86
2019-03-08T21:59:55.774Z,101133.11
2019-03-08T22:02:23.578Z,101131.69
2019-03-08T22:04:57.114Z,101126.23
2019-03-08T22:07:24.926Z,101108.38
2019-03-08T22:10:04.463Z,101100.44
2019-03-08T22:12:32.358Z,101094.59
2019-03-08T22:15:00.311Z,101095.33
2019-03-08T22:17:28.565Z,101087.23
2019-03-08T22:19:56.358Z,101079.70
2019-03-08T22:22:24.170Z,101067.77
2019-03-08T22:24:52.281Z,101065.66
2019-03-08T22:27:20.119Z,101064.41
2019-03-08T22:29:48.108Z,101057.44
2019-03-08T22:32:17.115Z,101058.73
2019-03-08T22:34:45.087Z,101054.61
2019-03-08T22:37:19.343Z,101043.56
2019-03-08T22:39:47.380Z,101027.84
2019-03-08T22:42:15.561Z,101019.98
2019-03-08T22:44:48.277Z,101017.92
2019-03-08T22:47:16.489Z,101014.66
2019-03-08T22:49:44.480Z,101012.92
2019-03-08T22:52:15.742Z,101007.30
2019-03-08T22:54:43.820Z,101017.05
2019-03-08T22:57:15.418Z,100999.19
2019-03-08T22:59:43.591Z,101004.00
2019-03-08T23:02:13.004Z,101002.17
2019-03-08T23:04:40.913Z,100993.30
2019-03-08T23:07:14.575Z,100993.33
2019-03-08T23:09:46.985Z,100983.64
2019-03-08T23:12:15.198Z,100971.58
2019-03-08T23:14:44.286Z,100969.56
2019-03-08T23:17:12.384Z,100965.07
2019-03-08T23:19:43.158Z,100966.75
2019-03-08T23:22:11.352Z,100965.87
2019-03-08T23:24:39.324Z,100961.76
2019-03-08T23:27:23.883Z,100949.41
2019-03-08T23:29:57.337Z,100940.44
2019-03-08T23:32:40.438Z,100938.18
2019-03-08T23:35:12.146Z,100929.88
2019-03-08T23:37:43.134Z,100923.93
2019-03-08T23:40:19.259Z,100916.10
2019-03-08T23:42:47.395Z,100913.77
2019-03-08T23:45:15.593Z,100911.80
2019-03-08T23:47:43.460Z,100906.23
2019-03-08T23:50:21.236Z,100902.11
2019-03-08T23:52:52.061Z,100903.28
2019-03-08T23:55:19.945Z,100900.41
2019-03-08T23:57:50.841Z,100886.48
